AZA274 LYTV-LICJ
Flight info
| Callsign | AZA274 |
|---|---|
| Flight time | 1h 7m |
| Altitude | 33000 |
| Route | KOFER DCT SOBRI DCT PELEN DCT LAVRU |
| Aircraft | MD82/M-SDFGIRWY/S |
Departure
| Time | 2026-04-27 12:27 |
|---|---|
| Airport | Tivat Airport (LYTV) |
Arrival
| Time | 2026-04-27 13:34 |
|---|---|
| Airport | Falcone–Borsellino Airport (LICJ) |
| Time | Latitude | Longitude | Altitude | Speed | Heading |
|---|---|---|---|---|---|
| 2026-04-27 11:47 | 42.41221 | 18.71695 | -14 ft | 0 kts | 169° |
| 2026-04-27 12:21 | 42.41216 | 18.71696 | -9 ft | 1 kts | 176° |
| 2026-04-27 12:22 | 42.41208 | 18.71694 | -9 ft | 1 kts | 192° |
| 2026-04-27 12:22 | 42.41197 | 18.71687 | -9 ft | 2 kts | 214° |
| 2026-04-27 12:22 | 42.41191 | 18.71675 | -9 ft | 1 kts | 242° |
| 2026-04-27 12:22 | 42.41189 | 18.71661 | -9 ft | 3 kts | 272° |
| 2026-04-27 12:23 | 42.41202 | 18.71641 | -7 ft | 2 kts | 323° |
| 2026-04-27 12:23 | 42.41209 | 18.71634 | -6 ft | 3 kts | 324° |
| 2026-04-27 12:23 | 42.41235 | 18.71606 | -5 ft | 6 kts | 321° |
| 2026-04-27 12:23 | 42.41270 | 18.71567 | -6 ft | 7 kts | 319° |
| 2026-04-27 12:24 | 42.41290 | 18.71543 | -7 ft | 5 kts | 318° |
| 2026-04-27 12:24 | 42.41315 | 18.71513 | -8 ft | 6 kts | 318° |
| 2026-04-27 12:24 | 42.41347 | 18.71473 | -8 ft | 7 kts | 312° |
| 2026-04-27 12:24 | 42.41356 | 18.71418 | -8 ft | 6 kts | 258° |
| 2026-04-27 12:25 | 42.41326 | 18.71364 | -10 ft | 7 kts | 226° |
| 2026-04-27 12:25 | 42.41294 | 18.71350 | -11 ft | 4 kts | 141° |
| 2026-04-27 12:25 | 42.41293 | 18.71351 | -11 ft | 0 kts | 139° |
| 2026-04-27 12:26 | 42.41286 | 18.71359 | -10 ft | 6 kts | 139° |
| 2026-04-27 12:26 | 42.41177 | 18.71489 | -8 ft | 44 kts | 139° |
| 2026-04-27 12:26 | 42.40791 | 18.71946 | -8 ft | 106 kts | 139° |
| 2026-04-27 12:27 | 42.40080 | 18.72775 | -6 ft | 162 kts | 142° |
| 2026-04-27 12:27 | 42.39164 | 18.73835 | 504 ft | 170 kts | 138° |
| 2026-04-27 12:27 | 42.38178 | 18.74648 | 1368 ft | 165 kts | 159° |
| 2026-04-27 12:27 | 42.37148 | 18.75140 | 2092 ft | 166 kts | 163° |
| 2026-04-27 12:28 | 42.36035 | 18.75617 | 2729 ft | 169 kts | 165° |
| 2026-04-27 12:28 | 42.34866 | 18.76052 | 3099 ft | 183 kts | 166° |
| 2026-04-27 12:28 | 42.33561 | 18.76557 | 3358 ft | 204 kts | 164° |
| 2026-04-27 12:28 | 42.32152 | 18.77116 | 3693 ft | 219 kts | 164° |
| 2026-04-27 12:29 | 42.30623 | 18.77721 | 4024 ft | 238 kts | 165° |
| 2026-04-27 12:29 | 42.28987 | 18.78346 | 4537 ft | 250 kts | 165° |
| 2026-04-27 12:29 | 42.27295 | 18.78972 | 5205 ft | 254 kts | 165° |
| 2026-04-27 12:29 | 42.25524 | 18.79283 | 5746 ft | 264 kts | 184° |
| 2026-04-27 12:30 | 42.23672 | 18.78756 | 6109 ft | 279 kts | 198° |
| 2026-04-27 12:30 | 42.21812 | 18.77944 | 6762 ft | 283 kts | 199° |
| 2026-04-27 12:30 | 42.19945 | 18.77121 | 7498 ft | 283 kts | 199° |
| 2026-04-27 12:30 | 42.18062 | 18.76292 | 8176 ft | 286 kts | 198° |
| 2026-04-27 12:31 | 42.16165 | 18.75460 | 8871 ft | 289 kts | 198° |
| 2026-04-27 12:31 | 42.14240 | 18.74641 | 9539 ft | 293 kts | 197° |
| 2026-04-27 12:31 | 42.12283 | 18.73836 | 10238 ft | 294 kts | 197° |
| 2026-04-27 12:31 | 42.10318 | 18.73053 | 10891 ft | 296 kts | 197° |
| 2026-04-27 12:32 | 42.08324 | 18.72278 | 11532 ft | 299 kts | 196° |
| 2026-04-27 12:32 | 42.06324 | 18.71506 | 12237 ft | 299 kts | 196° |
| 2026-04-27 12:32 | 42.04305 | 18.70735 | 12841 ft | 304 kts | 196° |
| 2026-04-27 12:32 | 42.02260 | 18.69956 | 13451 ft | 307 kts | 196° |
| 2026-04-27 12:33 | 42.00194 | 18.69171 | 14031 ft | 311 kts | 197° |
| 2026-04-27 12:33 | 41.98104 | 18.68374 | 14564 ft | 313 kts | 197° |
| 2026-04-27 12:33 | 41.96007 | 18.67568 | 15124 ft | 314 kts | 196° |
| 2026-04-27 12:33 | 41.93897 | 18.66755 | 15639 ft | 317 kts | 198° |
| 2026-04-27 12:34 | 41.91924 | 18.65442 | 16045 ft | 322 kts | 219° |
| 2026-04-27 12:34 | 41.90230 | 18.63372 | 16177 ft | 336 kts | 226° |
| 2026-04-27 12:34 | 41.88555 | 18.61085 | 16333 ft | 351 kts | 226° |
| 2026-04-27 12:34 | 41.86820 | 18.58688 | 16467 ft | 365 kts | 226° |
| 2026-04-27 12:35 | 41.85017 | 18.56195 | 16631 ft | 379 kts | 226° |
| 2026-04-27 12:35 | 41.83157 | 18.53640 | 17032 ft | 385 kts | 225° |
| 2026-04-27 12:35 | 41.81270 | 18.51088 | 17592 ft | 387 kts | 225° |
| 2026-04-27 12:35 | 41.79357 | 18.48542 | 18154 ft | 389 kts | 225° |
| 2026-04-27 12:36 | 41.77421 | 18.45991 | 18660 ft | 391 kts | 225° |
| 2026-04-27 12:36 | 41.75469 | 18.43441 | 19160 ft | 393 kts | 225° |
| 2026-04-27 12:36 | 41.73507 | 18.40887 | 19682 ft | 394 kts | 225° |
| 2026-04-27 12:36 | 41.71562 | 18.38356 | 20133 ft | 397 kts | 225° |
| 2026-04-27 12:37 | 41.69577 | 18.35765 | 20559 ft | 400 kts | 225° |
| 2026-04-27 12:37 | 41.67580 | 18.33155 | 21062 ft | 402 kts | 226° |
| 2026-04-27 12:37 | 41.65575 | 18.30531 | 21543 ft | 404 kts | 226° |
| 2026-04-27 12:37 | 41.63560 | 18.27891 | 21989 ft | 407 kts | 226° |
| 2026-04-27 12:38 | 41.61529 | 18.25235 | 22444 ft | 410 kts | 226° |
| 2026-04-27 12:38 | 41.59480 | 18.22572 | 22903 ft | 412 kts | 226° |
| 2026-04-27 12:38 | 41.57417 | 18.19898 | 23332 ft | 415 kts | 226° |
| 2026-04-27 12:38 | 41.55339 | 18.17205 | 23763 ft | 417 kts | 226° |
| 2026-04-27 12:39 | 41.53253 | 18.14501 | 24134 ft | 419 kts | 226° |
| 2026-04-27 12:39 | 41.51159 | 18.11782 | 24541 ft | 420 kts | 226° |
| 2026-04-27 12:39 | 41.49059 | 18.09054 | 24930 ft | 422 kts | 226° |
| 2026-04-27 12:39 | 41.46953 | 18.06318 | 25288 ft | 424 kts | 226° |
| 2026-04-27 12:40 | 41.44833 | 18.03565 | 25648 ft | 426 kts | 226° |
| 2026-04-27 12:40 | 41.42704 | 18.00804 | 26025 ft | 428 kts | 227° |
| 2026-04-27 12:40 | 41.40570 | 17.98038 | 26426 ft | 429 kts | 227° |
| 2026-04-27 12:40 | 41.38423 | 17.95258 | 26770 ft | 432 kts | 227° |
| 2026-04-27 12:41 | 41.36275 | 17.92478 | 27120 ft | 434 kts | 227° |
| 2026-04-27 12:41 | 41.34097 | 17.89663 | 27512 ft | 435 kts | 227° |
| 2026-04-27 12:41 | 41.31923 | 17.86855 | 27900 ft | 437 kts | 227° |
| 2026-04-27 12:41 | 41.29731 | 17.84041 | 28255 ft | 439 kts | 227° |
| 2026-04-27 12:42 | 41.28272 | 17.82175 | 28464 ft | 441 kts | 226° |
| 2026-04-27 12:42 | 41.26056 | 17.79341 | 28831 ft | 442 kts | 227° |
| 2026-04-27 12:42 | 41.23843 | 17.76511 | 29358 ft | 440 kts | 227° |
| 2026-04-27 12:42 | 41.21647 | 17.73702 | 29951 ft | 437 kts | 227° |
| 2026-04-27 12:43 | 41.19473 | 17.70913 | 30417 ft | 434 kts | 227° |
| 2026-04-27 12:43 | 41.17302 | 17.68132 | 30814 ft | 433 kts | 227° |
| 2026-04-27 12:43 | 41.15134 | 17.65357 | 31222 ft | 432 kts | 227° |
| 2026-04-27 12:43 | 41.12977 | 17.62597 | 31633 ft | 430 kts | 227° |
| 2026-04-27 12:44 | 41.10820 | 17.59838 | 31888 ft | 432 kts | 227° |
| 2026-04-27 12:44 | 41.08657 | 17.57072 | 32006 ft | 432 kts | 227° |
| 2026-04-27 12:44 | 41.06493 | 17.54309 | 32068 ft | 431 kts | 227° |
| 2026-04-27 12:45 | 41.02190 | 17.48819 | 32096 ft | 429 kts | 227° |
| 2026-04-27 12:45 | 40.97869 | 17.43356 | 32110 ft | 430 kts | 226° |
| 2026-04-27 12:46 | 40.93536 | 17.37891 | 32105 ft | 430 kts | 226° |
| 2026-04-27 12:46 | 40.89204 | 17.32420 | 32104 ft | 431 kts | 226° |
| 2026-04-27 12:47 | 40.84873 | 17.26945 | 32103 ft | 431 kts | 226° |
| 2026-04-27 12:47 | 40.80559 | 17.21502 | 32106 ft | 432 kts | 226° |
| 2026-04-27 12:48 | 40.76183 | 17.15992 | 32114 ft | 433 kts | 226° |
| 2026-04-27 12:48 | 40.71858 | 17.10559 | 32110 ft | 432 kts | 226° |
| 2026-04-27 12:49 | 40.67505 | 17.05130 | 32118 ft | 430 kts | 226° |
| 2026-04-27 12:49 | 40.63155 | 16.99712 | 32122 ft | 431 kts | 226° |
| 2026-04-27 12:50 | 40.58793 | 16.94278 | 32114 ft | 432 kts | 226° |
| 2026-04-27 12:50 | 40.54431 | 16.88846 | 32104 ft | 432 kts | 226° |
| 2026-04-27 12:51 | 40.50062 | 16.83409 | 32187 ft | 433 kts | 226° |
| 2026-04-27 12:51 | 40.45696 | 16.77987 | 32207 ft | 431 kts | 226° |
| 2026-04-27 12:52 | 40.41345 | 16.72595 | 32233 ft | 430 kts | 226° |
| 2026-04-27 12:52 | 40.36976 | 16.67220 | 32234 ft | 432 kts | 225° |
| 2026-04-27 12:53 | 40.30394 | 16.59131 | 32223 ft | 432 kts | 225° |
| 2026-04-27 12:53 | 40.26011 | 16.53746 | 32197 ft | 432 kts | 225° |
| 2026-04-27 12:54 | 40.21631 | 16.48370 | 32166 ft | 431 kts | 225° |
| 2026-04-27 12:54 | 40.17257 | 16.43003 | 32137 ft | 431 kts | 225° |
| 2026-04-27 12:55 | 40.12889 | 16.37655 | 32109 ft | 430 kts | 225° |
| 2026-04-27 12:55 | 40.08507 | 16.32318 | 32107 ft | 432 kts | 225° |
| 2026-04-27 12:56 | 40.04164 | 16.27049 | 32105 ft | 433 kts | 225° |
| 2026-04-27 12:56 | 39.99743 | 16.21696 | 32106 ft | 433 kts | 225° |
| 2026-04-27 12:57 | 39.95337 | 16.16354 | 32105 ft | 432 kts | 225° |
| 2026-04-27 12:57 | 39.90949 | 16.11032 | 32108 ft | 431 kts | 225° |
| 2026-04-27 12:58 | 39.86554 | 16.05714 | 32118 ft | 432 kts | 225° |
| 2026-04-27 12:58 | 39.82149 | 16.00392 | 32119 ft | 432 kts | 225° |
| 2026-04-27 12:59 | 39.77729 | 15.95081 | 32117 ft | 433 kts | 225° |
| 2026-04-27 12:59 | 39.73294 | 15.89778 | 32123 ft | 434 kts | 224° |
| 2026-04-27 13:00 | 39.68862 | 15.84474 | 32122 ft | 432 kts | 225° |
| 2026-04-27 13:00 | 39.64447 | 15.79187 | 32125 ft | 431 kts | 225° |
| 2026-04-27 13:01 | 39.60041 | 15.73914 | 32132 ft | 431 kts | 225° |
| 2026-04-27 13:01 | 39.55624 | 15.68639 | 32129 ft | 432 kts | 224° |
| 2026-04-27 13:02 | 39.51198 | 15.63363 | 32126 ft | 433 kts | 224° |
| 2026-04-27 13:02 | 39.46756 | 15.58099 | 32131 ft | 433 kts | 224° |
| 2026-04-27 13:03 | 39.42305 | 15.52843 | 32121 ft | 434 kts | 224° |
| 2026-04-27 13:03 | 39.37855 | 15.47580 | 32124 ft | 433 kts | 224° |
| 2026-04-27 13:04 | 39.33446 | 15.42370 | 32126 ft | 432 kts | 224° |
| 2026-04-27 13:04 | 39.29014 | 15.37139 | 32124 ft | 431 kts | 224° |
| 2026-04-27 13:05 | 39.24582 | 15.31913 | 32126 ft | 432 kts | 224° |
| 2026-04-27 13:05 | 39.20139 | 15.26682 | 32124 ft | 433 kts | 224° |
| 2026-04-27 13:06 | 39.15712 | 15.21431 | 32126 ft | 433 kts | 225° |
| 2026-04-27 13:06 | 39.11286 | 15.16162 | 32121 ft | 433 kts | 224° |
| 2026-04-27 13:07 | 39.06710 | 15.11105 | 32128 ft | 435 kts | 217° |
| 2026-04-27 13:07 | 39.01730 | 15.06821 | 32124 ft | 436 kts | 216° |
| 2026-04-27 13:08 | 38.96712 | 15.02459 | 32125 ft | 434 kts | 217° |
| 2026-04-27 13:08 | 38.91781 | 14.97997 | 32125 ft | 433 kts | 217° |
| 2026-04-27 13:09 | 38.86880 | 14.93496 | 32126 ft | 434 kts | 217° |
| 2026-04-27 13:09 | 38.81966 | 14.89001 | 32123 ft | 434 kts | 218° |
| 2026-04-27 13:10 | 38.77033 | 14.84514 | 32124 ft | 435 kts | 217° |
| 2026-04-27 13:10 | 38.72098 | 14.80043 | 32125 ft | 435 kts | 217° |
| 2026-04-27 13:11 | 38.67148 | 14.75590 | 32125 ft | 434 kts | 217° |
| 2026-04-27 13:11 | 38.62216 | 14.71159 | 32117 ft | 432 kts | 218° |
| 2026-04-27 13:12 | 38.57315 | 14.66753 | 32121 ft | 430 kts | 218° |
| 2026-04-27 13:12 | 38.52429 | 14.62354 | 32125 ft | 430 kts | 218° |
| 2026-04-27 13:13 | 38.47524 | 14.57947 | 31818 ft | 437 kts | 218° |
| 2026-04-27 13:13 | 38.45022 | 14.55702 | 31284 ft | 440 kts | 218° |
| 2026-04-27 13:13 | 38.42521 | 14.53465 | 30695 ft | 437 kts | 218° |
| 2026-04-27 13:14 | 38.40043 | 14.51254 | 30101 ft | 435 kts | 218° |
| 2026-04-27 13:14 | 38.37572 | 14.49045 | 29428 ft | 431 kts | 218° |
| 2026-04-27 13:14 | 38.35319 | 14.46601 | 28801 ft | 421 kts | 233° |
| 2026-04-27 13:14 | 38.33835 | 14.43509 | 28283 ft | 413 kts | 251° |
| 2026-04-27 13:15 | 38.33128 | 14.39974 | 27600 ft | 412 kts | 263° |
| 2026-04-27 13:15 | 38.32781 | 14.36368 | 26897 ft | 410 kts | 265° |
| 2026-04-27 13:15 | 38.32548 | 14.32772 | 26232 ft | 406 kts | 267° |
| 2026-04-27 13:15 | 38.32367 | 14.29192 | 25560 ft | 403 kts | 268° |
| 2026-04-27 13:16 | 38.32203 | 14.25646 | 24911 ft | 400 kts | 268° |
| 2026-04-27 13:16 | 38.32033 | 14.22122 | 24266 ft | 398 kts | 267° |
| 2026-04-27 13:16 | 38.31846 | 14.18614 | 23602 ft | 396 kts | 267° |
| 2026-04-27 13:16 | 38.31642 | 14.15128 | 22886 ft | 393 kts | 266° |
| 2026-04-27 13:17 | 38.31428 | 14.11671 | 22241 ft | 390 kts | 266° |
| 2026-04-27 13:17 | 38.31209 | 14.08254 | 21628 ft | 385 kts | 266° |
| 2026-04-27 13:17 | 38.30989 | 14.04876 | 21021 ft | 381 kts | 266° |
| 2026-04-27 13:17 | 38.30773 | 14.01535 | 20455 ft | 377 kts | 266° |
| 2026-04-27 13:18 | 38.30560 | 13.98230 | 19856 ft | 373 kts | 266° |
| 2026-04-27 13:18 | 38.30352 | 13.94970 | 19255 ft | 370 kts | 266° |
| 2026-04-27 13:18 | 38.30145 | 13.91698 | 18664 ft | 367 kts | 266° |
| 2026-04-27 13:18 | 38.29935 | 13.88469 | 18014 ft | 365 kts | 266° |
| 2026-04-27 13:19 | 38.29719 | 13.85265 | 17364 ft | 362 kts | 266° |
| 2026-04-27 13:19 | 38.29502 | 13.82092 | 16772 ft | 357 kts | 266° |
| 2026-04-27 13:19 | 38.29287 | 13.78965 | 16213 ft | 352 kts | 266° |
| 2026-04-27 13:19 | 38.29077 | 13.75886 | 15668 ft | 347 kts | 266° |
| 2026-04-27 13:20 | 38.28872 | 13.72882 | 15108 ft | 343 kts | 266° |
| 2026-04-27 13:20 | 38.28669 | 13.69875 | 14561 ft | 339 kts | 266° |
| 2026-04-27 13:20 | 38.28469 | 13.66904 | 14024 ft | 335 kts | 266° |
| 2026-04-27 13:20 | 38.28272 | 13.63969 | 13420 ft | 331 kts | 266° |
| 2026-04-27 13:21 | 38.28078 | 13.61067 | 12863 ft | 327 kts | 266° |
| 2026-04-27 13:21 | 38.27887 | 13.58205 | 12322 ft | 322 kts | 265° |
| 2026-04-27 13:21 | 38.27699 | 13.55384 | 11829 ft | 318 kts | 265° |
| 2026-04-27 13:21 | 38.27513 | 13.52603 | 11332 ft | 314 kts | 265° |
| 2026-04-27 13:22 | 38.27329 | 13.49851 | 10838 ft | 310 kts | 265° |
| 2026-04-27 13:22 | 38.27149 | 13.47164 | 10603 ft | 298 kts | 265° |
| 2026-04-27 13:22 | 38.26976 | 13.44599 | 10458 ft | 284 kts | 265° |
| 2026-04-27 13:22 | 38.26811 | 13.42156 | 10309 ft | 271 kts | 265° |
| 2026-04-27 13:23 | 38.26654 | 13.39831 | 10216 ft | 257 kts | 265° |
| 2026-04-27 13:23 | 38.26507 | 13.37618 | 10118 ft | 247 kts | 265° |
| 2026-04-27 13:23 | 38.26344 | 13.35388 | 9873 ft | 266 kts | 260° |
| 2026-04-27 13:23 | 38.25789 | 13.33120 | 9716 ft | 267 kts | 248° |
| 2026-04-27 13:24 | 38.25038 | 13.30941 | 9459 ft | 270 kts | 246° |
| 2026-04-27 13:24 | 38.24272 | 13.28788 | 9172 ft | 265 kts | 246° |
| 2026-04-27 13:24 | 38.23506 | 13.26632 | 8813 ft | 268 kts | 246° |
| 2026-04-27 13:24 | 38.22740 | 13.24470 | 8439 ft | 267 kts | 246° |
| 2026-04-27 13:25 | 38.21984 | 13.22315 | 8087 ft | 267 kts | 246° |
| 2026-04-27 13:25 | 38.21238 | 13.20153 | 7737 ft | 267 kts | 247° |
| 2026-04-27 13:25 | 38.20511 | 13.18027 | 7519 ft | 254 kts | 247° |
| 2026-04-27 13:25 | 38.19834 | 13.16024 | 7302 ft | 240 kts | 247° |
| 2026-04-27 13:26 | 38.19190 | 13.14112 | 7044 ft | 231 kts | 247° |
| 2026-04-27 13:26 | 38.18575 | 13.12275 | 6837 ft | 221 kts | 247° |
| 2026-04-27 13:26 | 38.17985 | 13.10510 | 6682 ft | 213 kts | 248° |
| 2026-04-27 13:26 | 38.17416 | 13.08801 | 6568 ft | 210 kts | 248° |
| 2026-04-27 13:27 | 38.17075 | 13.06996 | 6495 ft | 211 kts | 269° |
| 2026-04-27 13:27 | 38.17115 | 13.05097 | 6154 ft | 219 kts | 273° |
| 2026-04-27 13:27 | 38.17209 | 13.03138 | 5608 ft | 219 kts | 273° |
| 2026-04-27 13:27 | 38.17298 | 13.01197 | 4996 ft | 222 kts | 271° |
| 2026-04-27 13:28 | 38.17366 | 12.99241 | 4535 ft | 218 kts | 270° |
| 2026-04-27 13:28 | 38.17400 | 12.97375 | 4241 ft | 204 kts | 270° |
| 2026-04-27 13:28 | 38.17420 | 12.95636 | 4090 ft | 189 kts | 269° |
| 2026-04-27 13:28 | 38.17435 | 12.94559 | 4026 ft | 180 kts | 269° |
| 2026-04-27 13:29 | 38.17439 | 12.92983 | 3749 ft | 180 kts | 265° |
| 2026-04-27 13:29 | 38.17016 | 12.91563 | 3612 ft | 171 kts | 227° |
| 2026-04-27 13:29 | 38.16098 | 12.90638 | 3439 ft | 169 kts | 207° |
| 2026-04-27 13:29 | 38.14955 | 12.90287 | 3187 ft | 173 kts | 176° |
| 2026-04-27 13:30 | 38.13812 | 12.90752 | 2953 ft | 177 kts | 146° |
| 2026-04-27 13:30 | 38.13003 | 12.91911 | 2730 ft | 179 kts | 110° |
| 2026-04-27 13:30 | 38.13048 | 12.93410 | 2585 ft | 168 kts | 63° |
| 2026-04-27 13:30 | 38.13350 | 12.94782 | 2563 ft | 168 kts | 89° |
| 2026-04-27 13:31 | 38.13397 | 12.96231 | 2548 ft | 164 kts | 80° |
| 2026-04-27 13:31 | 38.13691 | 12.97636 | 2524 ft | 162 kts | 69° |
| 2026-04-27 13:31 | 38.14106 | 12.98979 | 2503 ft | 160 kts | 66° |
| 2026-04-27 13:31 | 38.14512 | 13.00181 | 2623 ft | 148 kts | 65° |
| 2026-04-27 13:32 | 38.14942 | 13.01431 | 2616 ft | 158 kts | 65° |
| 2026-04-27 13:32 | 38.15414 | 13.02727 | 2252 ft | 163 kts | 63° |
| 2026-04-27 13:32 | 38.15892 | 13.04063 | 1722 ft | 170 kts | 63° |
| 2026-04-27 13:32 | 38.16362 | 13.05454 | 1150 ft | 173 kts | 66° |
| 2026-04-27 13:33 | 38.16829 | 13.06865 | 660 ft | 169 kts | 66° |
| 2026-04-27 13:33 | 38.17282 | 13.08206 | 288 ft | 163 kts | 66° |
| 2026-04-27 13:33 | 38.17707 | 13.09472 | 66 ft | 146 kts | 66° |
| 2026-04-27 13:33 | 38.18070 | 13.10543 | 54 ft | 102 kts | 68° |
| 2026-04-27 13:34 | 38.18256 | 13.11098 | 53 ft | 59 kts | 66° |
| 2026-04-27 13:34 | 38.18413 | 13.11560 | 52 ft | 55 kts | 66° |
| 2026-04-27 13:34 | 38.18511 | 13.11842 | 50 ft | 20 kts | 56° |
| 2026-04-27 13:34 | 38.18594 | 13.11813 | 50 ft | 16 kts | 281° |
| 2026-04-27 13:35 | 38.18608 | 13.11674 | 50 ft | 17 kts | 276° |
| 2026-04-27 13:35 | 38.18607 | 13.11538 | 51 ft | 15 kts | 251° |
| 2026-04-27 13:35 | 38.18567 | 13.11414 | 53 ft | 15 kts | 246° |
| 2026-04-27 13:35 | 38.18519 | 13.11288 | 54 ft | 17 kts | 246° |
| 2026-04-27 13:36 | 38.18475 | 13.11146 | 51 ft | 18 kts | 249° |
| 2026-04-27 13:36 | 38.18442 | 13.11042 | 54 ft | 7 kts | 245° |
| 2026-04-27 13:36 | 38.18432 | 13.11012 | 51 ft | 0 kts | 245° |
| 2026-04-27 13:37 | 38.18431 | 13.11011 | 52 ft | 1 kts | 245° |
| 2026-04-27 13:37 | 38.18426 | 13.10997 | 52 ft | 3 kts | 246° |
| 2026-04-27 13:37 | 38.18425 | 13.10971 | 54 ft | 3 kts | 281° |
| 2026-04-27 13:38 | 38.18440 | 13.10946 | 51 ft | 4 kts | 323° |
| 2026-04-27 13:38 | 38.18464 | 13.10914 | 54 ft | 5 kts | 296° |
| 2026-04-27 13:38 | 38.18474 | 13.10861 | 54 ft | 7 kts | 286° |
| 2026-04-27 13:38 | 38.18492 | 13.10797 | 54 ft | 8 kts | 290° |
| 2026-04-27 13:39 | 38.18505 | 13.10724 | 54 ft | 9 kts | 259° |
| 2026-04-27 13:39 | 38.18481 | 13.10643 | 54 ft | 10 kts | 247° |
| 2026-04-27 13:39 | 38.18460 | 13.10563 | 54 ft | 8 kts | 281° |
| 2026-04-27 13:39 | 38.18494 | 13.10525 | 54 ft | 6 kts | 322° |
| 2026-04-27 13:40 | 38.18517 | 13.10503 | 54 ft | 2 kts | 326° |
| 2026-04-27 13:40 | 38.18519 | 13.10502 | 54 ft | 0 kts | 326° |